Time;durP1;ratioP1;P1;durP2;ratioP2;P2;SDS_P1;SDS_P2;PMS_P1;PMS_P2;Temp;Humidity;BMP_temperature;BMP_pressure;BME280_temperature;BME280_humidity;BME280_pressure;Samples;Min_cycle;Max_cycle;Signal;HPM_P1;HPM_P2
2024/01/18 00:00:04;;;;;;;;;24.75;15.00;;;;;;;;5041869;28;61753;-80
2024/01/18 00:02:29;;;;;;;;;16.50;15.25;;;;;;;;5042310;28;61830;-80
2024/01/18 00:04:54;;;;;;;;;25.00;17.25;;;;;;;;5024412;28;61709;-79
2024/01/18 00:07:20;;;;;;;;;24.75;15.75;;;;;;;;5041304;28;62023;-78
2024/01/18 00:09:45;;;;;;;;;15.50;13.75;;;;;;;;5041985;28;61894;-79
2024/01/18 00:12:11;;;;;;;;;20.50;16.25;;;;;;;;5023764;28;61974;-80
2024/01/18 00:14:36;;;;;;;;;37.00;27.00;;;;;;;;5042560;28;61663;-80
2024/01/18 00:17:01;;;;;;;;;12.50;11.00;;;;;;;;5041814;28;62065;-80
2024/01/18 00:19:26;;;;;;;;;19.25;11.00;;;;;;;;5041747;28;61791;-80
2024/01/18 00:21:51;;;;;;;;;12.75;11.25;;;;;;;;5042101;28;61792;-80
2024/01/18 00:24:17;;;;;;;;;18.00;12.00;;;;;;;;5041922;28;62059;-80
2024/01/18 00:26:42;;;;;;;;;23.25;12.00;;;;;;;;5041145;28;61792;-80
2024/01/18 00:29:07;;;;;;;;;15.00;12.75;;;;;;;;5041393;28;61919;-79
2024/01/18 00:31:32;;;;;;;;;14.75;14.50;;;;;;;;5045845;28;61797;-80
2024/01/18 00:33:58;;;;;;;;;11.50;9.00;;;;;;;;5041866;28;61712;-80
2024/01/18 00:36:26;;;;;;;;;11.50;11.00;;;;;;;;5039883;28;61888;-80
2024/01/18 00:38:52;;;;;;;;;16.50;14.50;;;;;;;;5040243;28;61788;-80
2024/01/18 00:41:17;;;;;;;;;11.00;8.25;;;;;;;;5039899;28;62217;-79
2024/01/18 00:43:42;;;;;;;;;19.50;11.75;;;;;;;;5041242;28;62222;-79
2024/01/18 00:46:07;;;;;;;;;11.25;9.00;;;;;;;;5039735;28;61881;-79
2024/01/18 00:48:33;;;;;;;;;21.50;14.25;;;;;;;;5022821;28;61903;-80
2024/01/18 00:50:58;;;;;;;;;12.00;9.00;;;;;;;;5022647;28;62073;-79
2024/01/18 00:53:24;;;;;;;;;13.50;8.25;;;;;;;;5040875;28;61900;-80
2024/01/18 00:55:49;;;;;;;;;16.50;12.00;;;;;;;;5040912;28;61795;-80
2024/01/18 00:58:14;;;;;;;;;22.75;13.25;;;;;;;;5040852;28;61733;-80
2024/01/18 01:00:39;;;;;;;;;17.75;11.00;;;;;;;;5023036;28;62127;-80
2024/01/18 01:03:05;;;;;;;;;9.25;9.25;;;;;;;;5041419;28;62114;-80
2024/01/18 01:05:30;;;;;;;;;17.25;9.25;;;;;;;;5022656;28;63794;-80
2024/01/18 01:07:55;;;;;;;;;14.25;11.00;;;;;;;;5041120;28;62010;-79
2024/01/18 01:10:21;;;;;;;;;18.00;14.25;;;;;;;;5041173;28;61721;-79
2024/01/18 01:12:46;;;;;;;;;12.75;10.75;;;;;;;;5041174;28;61968;-80
2024/01/18 01:15:12;;;;;;;;;11.25;11.25;;;;;;;;5022684;28;64944;-80
2024/01/18 01:17:37;;;;;;;;;13.75;12.25;;;;;;;;5023235;28;61933;-79
2024/01/18 01:20:03;;;;;;;;;13.25;9.00;;;;;;;;5041736;28;61787;-80
2024/01/18 01:22:28;;;;;;;;;13.25;11.00;;;;;;;;5022828;28;61895;-79
2024/01/18 01:24:53;;;;;;;;;19.25;8.00;;;;;;;;5040828;28;61754;-79
2024/01/18 01:27:18;;;;;;;;;14.25;11.25;;;;;;;;5040527;28;61910;-79
2024/01/18 01:29:43;;;;;;;;;18.00;10.50;;;;;;;;5040408;28;61750;-79
2024/01/18 01:32:09;;;;;;;;;13.75;11.00;;;;;;;;5027781;28;62120;-80
2024/01/18 01:34:34;;;;;;;;;18.25;10.75;;;;;;;;5039993;28;61823;-80
2024/01/18 01:36:59;;;;;;;;;12.50;11.00;;;;;;;;5033130;28;61960;-80
2024/01/18 01:39:25;;;;;;;;;19.25;13.25;;;;;;;;5021224;28;61884;-79
2024/01/18 01:41:50;;;;;;;;;14.00;12.00;;;;;;;;5024973;28;61838;-79
2024/01/18 01:44:15;;;;;;;;;25.75;14.50;;;;;;;;5003034;28;63760;-79
2024/01/18 01:46:40;;;;;;;;;14.00;12.00;;;;;;;;5031015;28;61701;-80
2024/01/18 01:49:06;;;;;;;;;15.50;13.50;;;;;;;;5023141;28;61917;-80
2024/01/18 01:51:38;;;;;;;;;17.25;14.25;;;;;;;;5040610;28;61835;-79
2024/01/18 01:54:04;;;;;;;;;21.75;17.75;;;;;;;;5022374;28;64077;-79
2024/01/18 01:56:30;;;;;;;;;25.75;12.75;;;;;;;;5040291;28;61801;-79
2024/01/18 01:58:56;;;;;;;;;20.00;15.50;;;;;;;;5040769;28;62014;-79
2024/01/18 02:01:21;;;;;;;;;17.50;15.00;;;;;;;;5041971;28;61819;-79
2024/01/18 02:03:46;;;;;;;;;22.25;18.00;;;;;;;;5025291;28;64861;-79
2024/01/18 02:06:13;;;;;;;;;21.25;14.50;;;;;;;;5043966;28;61919;-79
2024/01/18 02:08:39;;;;;;;;;17.75;17.50;;;;;;;;5044173;28;61784;-79
2024/01/18 02:11:04;;;;;;;;;16.25;16.25;;;;;;;;5043746;28;61850;-79
2024/01/18 02:13:30;;;;;;;;;24.25;16.50;;;;;;;;5025207;28;63938;-79
2024/01/18 02:15:55;;;;;;;;;28.50;18.00;;;;;;;;5043830;28;62015;-80
2024/01/18 02:18:20;;;;;;;;;20.75;16.00;;;;;;;;5044157;28;61855;-80
2024/01/18 02:20:46;;;;;;;;;22.25;16.75;;;;;;;;5025397;28;62245;-79
2024/01/18 02:23:11;;;;;;;;;20.75;18.50;;;;;;;;5043100;28;62545;-79
2024/01/18 02:25:36;;;;;;;;;20.00;15.25;;;;;;;;5044141;28;61869;-79
2024/01/18 02:28:02;;;;;;;;;27.25;21.00;;;;;;;;5043641;28;61971;-79
2024/01/18 02:30:27;;;;;;;;;22.50;17.75;;;;;;;;5043416;28;62211;-79
2024/01/18 02:32:52;;;;;;;;;27.00;17.00;;;;;;;;5059241;28;61897;-78
2024/01/18 02:35:18;;;;;;;;;21.75;17.25;;;;;;;;5047884;28;62045;-79
2024/01/18 02:37:43;;;;;;;;;0.25;0.00;;;;;;;;5043774;28;61713;-79
2024/01/18 02:40:09;;;;;;;;;17.75;15.50;;;;;;;;5031193;28;61825;-79
2024/01/18 02:42:34;;;;;;;;;16.75;15.75;;;;;;;;5028259;28;62061;-79
2024/01/18 02:45:02;;;;;;;;;25.25;14.75;;;;;;;;5043531;28;61807;-79
2024/01/18 02:47:28;;;;;;;;;21.00;13.25;;;;;;;;5025309;28;62069;-79
2024/01/18 02:49:53;;;;;;;;;21.75;19.00;;;;;;;;5025258;28;61758;-79
2024/01/18 02:52:18;;;;;;;;;18.50;15.75;;;;;;;;5042769;28;62719;-79
2024/01/18 02:54:44;;;;;;;;;14.00;10.75;;;;;;;;5043822;28;62067;-79
2024/01/18 02:57:09;;;;;;;;;18.00;14.25;;;;;;;;5042714;28;61735;-79
2024/01/18 02:59:35;;;;;;;;;18.25;17.00;;;;;;;;5043277;28;61918;-79
2024/01/18 03:02:00;;;;;;;;;12.50;10.75;;;;;;;;5024381;28;63943;-79
2024/01/18 03:04:25;;;;;;;;;22.75;15.75;;;;;;;;5043281;28;61979;-79
2024/01/18 03:06:50;;;;;;;;;14.75;12.50;;;;;;;;5043314;28;61862;-79
2024/01/18 03:09:15;;;;;;;;;14.25;11.00;;;;;;;;5043281;28;61975;-79
2024/01/18 03:11:41;;;;;;;;;14.50;12.00;;;;;;;;5041742;28;62017;-80
2024/01/18 03:14:06;;;;;;;;;14.00;8.50;;;;;;;;5042444;28;61759;-79
2024/01/18 03:16:31;;;;;;;;;18.25;10.50;;;;;;;;5025165;28;62103;-79
2024/01/18 03:18:57;;;;;;;;;18.00;10.00;;;;;;;;5024646;28;61743;-79
2024/01/18 03:21:22;;;;;;;;;11.00;10.50;;;;;;;;5042012;28;62788;-79
2024/01/18 03:23:47;;;;;;;;;14.25;12.00;;;;;;;;5043063;28;61962;-79
2024/01/18 03:26:12;;;;;;;;;13.75;12.75;;;;;;;;5043227;28;61842;-79
2024/01/18 03:28:38;;;;;;;;;19.75;11.50;;;;;;;;5042311;28;61811;-79
2024/01/18 03:31:03;;;;;;;;;9.50;8.50;;;;;;;;5042436;28;62719;-79
2024/01/18 03:33:28;;;;;;;;;11.00;10.00;;;;;;;;5043220;28;61804;-79
2024/01/18 03:35:54;;;;;;;;;10.25;7.50;;;;;;;;5042812;28;61732;-78
2024/01/18 03:38:19;;;;;;;;;17.00;10.00;;;;;;;;5042908;28;61806;-79
2024/01/18 03:40:44;;;;;;;;;13.25;9.00;;;;;;;;5024729;28;62138;-79
2024/01/18 03:43:11;;;;;;;;;18.00;11.00;;;;;;;;5021815;28;61981;-79
2024/01/18 03:45:36;;;;;;;;;13.25;10.25;;;;;;;;5041163;28;61787;-79
2024/01/18 03:48:01;;;;;;;;;12.75;8.25;;;;;;;;5042380;28;61743;-79
2024/01/18 03:50:26;;;;;;;;;13.00;10.00;;;;;;;;5041977;28;62717;-79
2024/01/18 03:52:51;;;;;;;;;12.25;9.75;;;;;;;;5024464;28;61965;-79
2024/01/18 03:55:17;;;;;;;;;10.50;4.50;;;;;;;;5042383;28;61965;-79
2024/01/18 03:57:42;;;;;;;;;17.25;10.50;;;;;;;;5042259;28;61875;-79
2024/01/18 04:00:09;;;;;;;;;13.75;10.00;;;;;;;;5041226;28;61856;-79
2024/01/18 04:02:34;;;;;;;;;10.50;8.00;;;;;;;;5023729;28;61883;-79
2024/01/18 04:05:00;;;;;;;;;10.00;7.00;;;;;;;;5024209;28;61747;-79
2024/01/18 04:07:25;;;;;;;;;12.00;10.25;;;;;;;;5023958;28;62144;-79
2024/01/18 04:09:50;;;;;;;;;17.00;8.00;;;;;;;;5041904;28;61712;-78
2024/01/18 04:12:16;;;;;;;;;17.75;13.50;;;;;;;;5041650;28;61936;-78
2024/01/18 04:14:43;;;;;;;;;15.75;13.00;;;;;;;;5024467;28;61814;-79
2024/01/18 04:17:12;;;;;;;;;15.75;10.50;;;;;;;;5041911;28;61817;-78
2024/01/18 04:19:39;;;;;;;;;13.50;11.00;;;;;;;;5023994;28;64230;-78
2024/01/18 04:22:04;;;;;;;;;12.50;10.75;;;;;;;;5023816;28;61900;-78
2024/01/18 04:24:29;;;;;;;;;15.75;11.75;;;;;;;;5041935;28;62269;-78
2024/01/18 04:26:55;;;;;;;;;15.50;13.25;;;;;;;;5023870;28;61992;-78
2024/01/18 04:29:20;;;;;;;;;19.75;10.50;;;;;;;;5039821;28;63058;-78
2024/01/18 04:31:46;;;;;;;;;19.00;12.75;;;;;;;;5048514;28;62048;-78
2024/01/18 04:34:11;;;;;;;;;20.50;11.00;;;;;;;;5044094;28;62146;-79
2024/01/18 04:36:36;;;;;;;;;20.75;13.50;;;;;;;;5062034;28;62324;-79
2024/01/18 04:39:02;;;;;;;;;13.00;10.00;;;;;;;;5058296;28;61812;-79
2024/01/18 04:41:27;;;;;;;;;20.50;13.00;;;;;;;;5023118;28;61672;-79
2024/01/18 04:43:52;;;;;;;;;15.50;13.75;;;;;;;;5025250;28;61714;-79
2024/01/18 04:46:19;;;;;;;;;24.00;13.50;;;;;;;;5021885;28;62211;-78
2024/01/18 04:48:45;;;;;;;;;14.25;13.25;;;;;;;;5002653;28;63923;-79
2024/01/18 04:51:10;;;;;;;;;16.25;14.75;;;;;;;;5021368;28;62149;-78
2024/01/18 04:53:35;;;;;;;;;16.50;16.50;;;;;;;;5003378;28;61833;-78
2024/01/18 04:56:00;;;;;;;;;21.75;16.00;;;;;;;;5026270;28;62021;-78
2024/01/18 04:58:26;;;;;;;;;24.25;17.00;;;;;;;;5040456;28;62737;-80
2024/01/18 05:00:51;;;;;;;;;16.75;13.00;;;;;;;;5040336;28;61980;-77
2024/01/18 05:03:17;;;;;;;;;17.50;16.50;;;;;;;;5040992;28;61832;-78
2024/01/18 05:05:42;;;;;;;;;18.50;16.50;;;;;;;;5041472;28;61745;-78
2024/01/18 05:08:07;;;;;;;;;20.00;15.00;;;;;;;;5040711;28;62688;-78
2024/01/18 05:10:33;;;;;;;;;17.75;12.50;;;;;;;;5041271;28;61796;-78
2024/01/18 05:12:58;;;;;;;;;21.00;13.50;;;;;;;;5022767;28;61888;-78
2024/01/18 05:15:25;;;;;;;;;22.00;17.25;;;;;;;;5040993;28;61740;-78
2024/01/18 05:17:50;;;;;;;;;22.25;20.00;;;;;;;;5040727;28;62698;-78
2024/01/18 05:20:15;;;;;;;;;27.25;19.25;;;;;;;;5041457;28;61843;-78
2024/01/18 05:22:42;;;;;;;;;21.75;18.75;;;;;;;;5022638;28;61833;-78
2024/01/18 05:25:08;;;;;;;;;30.25;23.00;;;;;;;;5023321;28;61795;-78
2024/01/18 05:27:33;;;;;;;;;25.50;21.00;;;;;;;;5022088;28;63901;-78
2024/01/18 05:29:59;;;;;;;;;26.25;23.75;;;;;;;;5021774;28;61773;-78
2024/01/18 05:32:24;;;;;;;;;28.00;20.50;;;;;;;;5053850;28;62699;-78
2024/01/18 05:34:50;;;;;;;;;22.75;18.00;;;;;;;;5061293;28;61792;-78
2024/01/18 05:37:16;;;;;;;;;35.00;23.25;;;;;;;;5045482;28;65025;-78
2024/01/18 05:39:41;;;;;;;;;25.67;19.00;;;;;;;;5055902;28;61776;-78
2024/01/18 05:42:07;;;;;;;;;24.00;20.00;;;;;;;;5025785;28;62107;-78
2024/01/18 05:44:32;;;;;;;;;32.75;26.25;;;;;;;;5044407;28;61842;-78
2024/01/18 05:46:58;;;;;;;;;33.33;29.00;;;;;;;;5025565;28;64731;-78
2024/01/18 05:49:23;;;;;;;;;33.67;26.67;;;;;;;;5044396;28;61668;-78
2024/01/18 05:51:48;;;;;;;;;33.00;25.00;;;;;;;;5026275;28;61938;-79
2024/01/18 05:54:14;;;;;;;;;36.00;22.33;;;;;;;;5026662;28;62063;-79
2024/01/18 05:56:40;;;;;;;;;40.00;30.33;;;;;;;;5043472;28;61852;-79
2024/01/18 05:59:05;;;;;;;;;23.50;20.50;;;;;;;;5042703;28;61748;-78
2024/01/18 06:01:31;;;;;;;;;39.00;26.33;;;;;;;;5043958;28;61864;-79
2024/01/18 06:03:57;;;;;;;;;39.00;28.00;;;;;;;;5043429;28;62122;-79
2024/01/18 06:06:22;;;;;;;;;34.00;27.00;;;;;;;;5025295;28;63636;-78
2024/01/18 06:08:48;;;;;;;;;29.00;26.00;;;;;;;;5043968;28;62004;-79
2024/01/18 06:11:14;;;;;;;;;31.67;21.67;;;;;;;;5044070;28;61883;-77
2024/01/18 06:13:39;;;;;;;;;29.25;23.00;;;;;;;;5046289;28;62180;-78
2024/01/18 06:16:06;;;;;;;;;36.00;23.67;;;;;;;;5025225;28;63702;-78
2024/01/18 06:18:32;;;;;;;;;26.33;26.00;;;;;;;;5046386;28;61986;-78
2024/01/18 06:20:57;;;;;;;;;27.50;21.00;;;;;;;;5028744;28;62001;-77
2024/01/18 06:23:22;;;;;;;;;32.67;23.00;;;;;;;;5043911;28;61776;-76
2024/01/18 06:25:48;;;;;;;;;40.50;22.50;;;;;;;;5025540;28;64576;-78
2024/01/18 06:28:13;;;;;;;;;35.50;27.25;;;;;;;;5036841;28;61814;-78
2024/01/18 06:30:43;;;;;;;;;27.25;22.25;;;;;;;;5042703;28;61996;-77
2024/01/18 06:33:08;;;;;;;;;31.25;22.50;;;;;;;;5062226;28;62333;-79
2024/01/18 06:35:33;;;;;;;;;32.75;27.75;;;;;;;;5056245;28;61825;-76
2024/01/18 06:37:59;;;;;;;;;30.25;23.00;;;;;;;;5042293;28;61986;-76
2024/01/18 06:40:24;;;;;;;;;33.00;26.00;;;;;;;;5042638;28;61836;-76
2024/01/18 06:42:50;;;;;;;;;32.00;21.25;;;;;;;;5037015;28;62113;-76
2024/01/18 06:45:15;;;;;;;;;33.00;21.00;;;;;;;;5042250;28;62271;-76
2024/01/18 06:47:40;;;;;;;;;34.75;25.50;;;;;;;;5024643;28;62124;-77
2024/01/18 06:50:05;;;;;;;;;32.50;23.75;;;;;;;;5025264;28;62673;-76
2024/01/18 06:52:31;;;;;;;;;37.75;27.25;;;;;;;;5024228;28;61950;-76
2024/01/18 06:54:56;;;;;;;;;32.67;27.33;;;;;;;;5040384;28;62027;-75
2024/01/18 06:57:22;;;;;;;;;32.33;25.33;;;;;;;;5040693;28;61967;-76
2024/01/18 06:59:52;;;;;;;;;29.25;23.50;;;;;;;;5039819;28;61900;-76
2024/01/18 07:02:18;;;;;;;;;38.00;27.67;;;;;;;;5042040;28;62100;-75
2024/01/18 07:04:43;;;;;;;;;39.00;29.75;;;;;;;;5039725;28;61890;-75
2024/01/18 07:07:09;;;;;;;;;39.50;27.50;;;;;;;;5039614;28;62211;-75
2024/01/18 07:09:34;;;;;;;;;39.50;30.00;;;;;;;;5039433;28;61933;-75
2024/01/18 07:11:59;;;;;;;;;39.33;26.67;;;;;;;;5039138;28;62078;-75
2024/01/18 07:14:24;;;;;;;;;39.33;32.00;;;;;;;;5021335;28;63641;-75
2024/01/18 07:16:50;;;;;;;;;55.33;44.00;;;;;;;;5022450;28;62393;-75
2024/01/18 07:19:15;;;;;;;;;40.00;30.00;;;;;;;;5039758;28;61915;-75
2024/01/18 07:21:40;;;;;;;;;57.67;42.67;;;;;;;;5020928;28;62299;-75
2024/01/18 07:24:06;;;;;;;;;41.67;38.33;;;;;;;;5030627;28;61932;-77
2024/01/18 07:26:31;;;;;;;;;49.67;35.33;;;;;;;;5042287;28;61777;-77
2024/01/18 07:28:56;;;;;;;;;36.67;33.33;;;;;;;;5042748;28;62392;-77
2024/01/18 07:31:21;;;;;;;;;42.33;38.67;;;;;;;;5045800;28;61736;-77
2024/01/18 07:33:50;;;;;;;;;39.75;32.25;;;;;;;;5062164;28;62673;-77
2024/01/18 07:36:15;;;;;;;;;49.67;37.33;;;;;;;;5046572;28;61832;-76
2024/01/18 07:38:41;;;;;;;;;48.33;37.33;;;;;;;;5042247;28;61729;-76
2024/01/18 07:41:06;;;;;;;;;63.33;34.00;;;;;;;;5039906;28;62057;-76
2024/01/18 07:43:32;;;;;;;;;50.67;37.33;;;;;;;;5038613;28;62458;-76
2024/01/18 07:45:57;;;;;;;;;49.33;40.33;;;;;;;;5042723;28;61985;-76
2024/01/18 07:48:22;;;;;;;;;49.67;43.33;;;;;;;;5042353;28;61697;-75
2024/01/18 07:50:47;;;;;;;;;50.33;42.33;;;;;;;;5023904;28;61848;-76
2024/01/18 07:53:13;;;;;;;;;44.67;37.33;;;;;;;;5022479;28;64585;-75
2024/01/18 07:55:38;;;;;;;;;49.33;42.00;;;;;;;;5042106;28;62022;-78
2024/01/18 07:58:03;;;;;;;;;55.33;43.00;;;;;;;;5023405;28;61958;-76
2024/01/18 08:00:29;;;;;;;;;55.33;40.67;;;;;;;;5041558;28;61874;-76
2024/01/18 08:02:55;;;;;;;;;60.00;44.00;;;;;;;;5041018;28;62061;-76
2024/01/18 08:05:21;;;;;;;;;60.67;43.33;;;;;;;;5023471;28;61954;-76
2024/01/18 08:07:46;;;;;;;;;62.67;50.67;;;;;;;;5023622;28;61762;-76
2024/01/18 08:10:11;;;;;;;;;50.67;46.00;;;;;;;;5041836;28;61856;-76
2024/01/18 08:12:37;;;;;;;;;59.67;46.33;;;;;;;;5040228;28;61775;-76
2024/01/18 08:15:03;;;;;;;;;46.67;44.67;;;;;;;;5041588;28;61796;-76
2024/01/18 08:17:28;;;;;;;;;56.00;47.67;;;;;;;;5041402;28;61922;-76
2024/01/18 08:19:54;;;;;;;;;63.67;45.33;;;;;;;;5041807;28;61888;-76
2024/01/18 08:22:20;;;;;;;;;53.00;48.00;;;;;;;;5022533;28;63900;-75
2024/01/18 08:24:46;;;;;;;;;62.00;47.67;;;;;;;;5041178;28;61689;-76
2024/01/18 08:27:11;;;;;;;;;55.33;45.33;;;;;;;;5041102;28;61858;-75
2024/01/18 08:29:37;;;;;;;;;58.67;46.00;;;;;;;;5041107;28;62987;-75
2024/01/18 08:32:03;;;;;;;;;59.00;42.67;;;;;;;;5047697;28;62758;-76
2024/01/18 08:34:28;;;;;;;;;70.33;45.00;;;;;;;;5034703;28;62106;-76
2024/01/18 08:36:53;;;;;;;;;57.33;48.00;;;;;;;;5041281;28;61867;-76
2024/01/18 08:39:19;;;;;;;;;60.67;45.33;;;;;;;;5042377;28;61723;-76
2024/01/18 08:41:44;;;;;;;;;62.00;45.00;;;;;;;;5040494;28;62559;-75
2024/01/18 08:44:09;;;;;;;;;70.00;47.00;;;;;;;;5041667;28;61881;-76
2024/01/18 08:46:35;;;;;;;;;65.67;49.67;;;;;;;;5040050;28;61947;-76
2024/01/18 08:49:00;;;;;;;;;73.67;55.33;;;;;;;;5040995;28;61841;-75
2024/01/18 08:51:25;;;;;;;;;65.67;49.00;;;;;;;;5040889;28;62307;-75
2024/01/18 08:53:50;;;;;;;;;66.33;48.00;;;;;;;;5041543;28;61852;-76
2024/01/18 08:56:17;;;;;;;;;54.33;45.00;;;;;;;;5042085;28;61852;-76
2024/01/18 08:58:42;;;;;;;;;67.67;51.00;;;;;;;;5041312;28;61958;-76
2024/01/18 09:01:07;;;;;;;;;72.33;50.00;;;;;;;;5038428;28;62013;-76
2024/01/18 09:03:32;;;;;;;;;56.67;38.33;;;;;;;;5039275;28;62069;-76
2024/01/18 09:05:58;;;;;;;;;66.67;46.67;;;;;;;;5021369;28;62146;-76
2024/01/18 09:08:23;;;;;;;;;64.67;49.00;;;;;;;;5039704;28;62120;-76
2024/01/18 09:10:48;;;;;;;;;66.67;45.67;;;;;;;;5039908;28;61871;-75
2024/01/18 09:13:14;;;;;;;;;57.33;42.67;;;;;;;;5042748;28;62034;-76
2024/01/18 09:15:40;;;;;;;;;74.67;52.33;;;;;;;;5044687;28;61737;-76
2024/01/18 09:18:06;;;;;;;;;65.00;51.33;;;;;;;;5045500;28;61932;-76
2024/01/18 09:20:31;;;;;;;;;68.33;52.33;;;;;;;;5044374;28;62458;-75
2024/01/18 09:22:57;;;;;;;;;54.00;48.00;;;;;;;;5045029;28;62162;-76
2024/01/18 09:25:22;;;;;;;;;69.00;49.00;;;;;;;;5026862;28;61746;-76
2024/01/18 09:27:47;;;;;;;;;76.33;48.33;;;;;;;;5044834;28;61674;-76
2024/01/18 09:30:12;;;;;;;;;81.67;63.67;;;;;;;;5043981;28;61805;-76
2024/01/18 09:32:39;;;;;;;;;71.33;50.33;;;;;;;;5059077;28;61917;-76
2024/01/18 09:35:05;;;;;;;;;73.00;55.00;;;;;;;;5065029;28;61866;-76
2024/01/18 09:37:31;;;;;;;;;82.33;57.33;;;;;;;;5065366;28;61811;-76
2024/01/18 09:39:56;;;;;;;;;64.33;55.33;;;;;;;;5046075;28;64734;-76
2024/01/18 09:42:22;;;;;;;;;67.00;50.00;;;;;;;;5064835;28;61732;-76
2024/01/18 09:44:47;;;;;;;;;71.67;55.67;;;;;;;;5064931;28;62503;-76
2024/01/18 09:47:15;;;;;;;;;63.67;47.67;;;;;;;;5065294;28;61866;-76
2024/01/18 09:49:41;;;;;;;;;67.67;52.00;;;;;;;;5063815;28;62692;-76
2024/01/18 09:52:06;;;;;;;;;73.33;55.00;;;;;;;;5064562;28;61710;-76
2024/01/18 09:54:32;;;;;;;;;76.00;55.33;;;;;;;;5064785;28;61695;-76
2024/01/18 09:56:59;;;;;;;;;74.00;56.67;;;;;;;;5064492;28;61674;-76
2024/01/18 09:59:26;;;;;;;;;80.00;62.33;;;;;;;;5063456;28;61902;-76
2024/01/18 10:01:52;;;;;;;;;75.67;59.00;;;;;;;;5046004;28;61827;-75
2024/01/18 10:04:18;;;;;;;;;59.67;46.67;;;;;;;;5064230;28;61914;-76
2024/01/18 10:06:43;;;;;;;;;87.33;58.67;;;;;;;;5064410;28;61914;-76
2024/01/18 10:09:10;;;;;;;;;75.00;55.67;;;;;;;;5063954;28;61770;-76
2024/01/18 10:11:36;;;;;;;;;72.67;58.00;;;;;;;;5064603;28;61914;-76
2024/01/18 10:14:02;;;;;;;;;67.00;53.00;;;;;;;;5063659;28;62100;-76
2024/01/18 10:16:37;;;;;;;;;49.00;40.67;;;;;;;;5064707;28;61890;-76
2024/01/18 10:19:04;;;;;;;;;77.33;58.67;;;;;;;;5063455;28;61713;-76
2024/01/18 10:21:30;;;;;;;;;61.67;50.00;;;;;;;;5064035;28;62120;-76
2024/01/18 10:23:56;;;;;;;;;73.00;54.67;;;;;;;;5064110;28;61791;-76
2024/01/18 10:26:24;;;;;;;;;67.00;45.67;;;;;;;;5064391;28;61797;-75
2024/01/18 10:28:49;;;;;;;;;71.33;51.00;;;;;;;;5063546;28;62527;-76
2024/01/18 10:31:14;;;;;;;;;58.33;44.67;;;;;;;;5062788;28;62016;-76
2024/01/18 10:33:40;;;;;;;;;69.00;54.33;;;;;;;;5045610;28;61808;-76
2024/01/18 10:36:05;;;;;;;;;54.00;42.00;;;;;;;;5064148;28;62111;-76
2024/01/18 10:38:32;;;;;;;;;66.00;50.33;;;;;;;;5063478;28;61766;-77
2024/01/18 10:40:58;;;;;;;;;65.67;49.00;;;;;;;;5063950;28;62129;-75
2024/01/18 10:43:27;;;;;;;;;63.67;49.00;;;;;;;;5063989;28;62006;-75
2024/01/18 10:45:53;;;;;;;;;63.00;48.00;;;;;;;;5064099;28;62188;-75
2024/01/18 10:48:18;;;;;;;;;60.00;46.33;;;;;;;;5063002;28;61692;-77
2024/01/18 10:50:45;;;;;;;;;57.67;44.00;;;;;;;;5063753;28;61760;-77
2024/01/18 10:53:10;;;;;;;;;53.33;43.00;;;;;;;;5063562;28;61688;-78
2024/01/18 10:55:35;;;;;;;;;50.67;44.33;;;;;;;;5064250;28;61708;-78
2024/01/18 10:58:01;;;;;;;;;55.33;41.67;;;;;;;;5053848;28;62675;-76
2024/01/18 11:00:26;;;;;;;;;61.67;44.67;;;;;;;;5043075;28;61704;-75
2024/01/18 11:02:52;;;;;;;;;52.67;42.67;;;;;;;;5042963;28;61746;-75
2024/01/18 11:05:20;;;;;;;;;65.33;49.00;;;;;;;;5043444;28;61708;-76
2024/01/18 11:07:46;;;;;;;;;67.00;56.00;;;;;;;;5042859;28;62814;-78
2024/01/18 11:10:11;;;;;;;;;62.67;50.33;;;;;;;;5043264;28;61857;-76
2024/01/18 11:12:41;;;;;;;;;61.33;44.33;;;;;;;;5042900;28;61746;-76
2024/01/18 11:15:06;;;;;;;;;69.00;50.67;;;;;;;;5025420;28;61642;-76
2024/01/18 11:17:33;;;;;;;;;70.67;53.33;;;;;;;;5042499;28;62803;-76
2024/01/18 11:20:02;;;;;;;;;55.33;42.67;;;;;;;;5043092;28;61851;-76
2024/01/18 11:22:28;;;;;;;;;59.33;47.33;;;;;;;;5043173;28;61785;-76
2024/01/18 11:25:00;;;;;;;;;72.33;53.33;;;;;;;;5025583;28;61691;-76
2024/01/18 11:27:25;;;;;;;;;59.33;46.67;;;;;;;;5042345;28;62505;-76
2024/01/18 11:29:51;;;;;;;;;64.33;50.33;;;;;;;;5042385;28;61702;-75
2024/01/18 11:32:19;;;;;;;;;51.00;45.00;;;;;;;;5054187;28;61858;-75
2024/01/18 11:34:45;;;;;;;;;58.33;47.33;;;;;;;;5044122;28;61840;-76
2024/01/18 11:37:14;;;;;;;;;67.67;49.33;;;;;;;;5045240;28;61849;-76
2024/01/18 11:39:48;;;;;;;;;62.67;48.00;;;;;;;;5042946;28;62022;-76
2024/01/18 11:42:22;;;;;;;;;67.33;48.00;;;;;;;;5043764;28;62032;-75
2024/01/18 11:44:59;;;;;;;;;64.67;49.67;;;;;;;;5044691;28;61793;-77
2024/01/18 11:47:27;;;;;;;;;66.67;49.00;;;;;;;;5041862;28;63019;-76
2024/01/18 11:49:52;;;;;;;;;51.00;40.67;;;;;;;;5042579;28;61951;-75
2024/01/18 11:52:19;;;;;;;;;58.33;46.00;;;;;;;;5042614;28;61969;-76
2024/01/18 11:54:46;;;;;;;;;62.00;42.75;;;;;;;;5042758;28;61721;-77
2024/01/18 11:57:14;;;;;;;;;60.33;46.00;;;;;;;;5041384;28;61605;-76
2024/01/18 11:59:43;;;;;;;;;54.33;44.67;;;;;;;;5042253;28;61757;-76
2024/01/18 12:02:10;;;;;;;;;64.67;49.67;;;;;;;;5024222;28;61781;-76
2024/01/18 12:04:35;;;;;;;;;56.67;44.33;;;;;;;;5042577;28;61753;-76
2024/01/18 12:07:00;;;;;;;;;64.00;50.33;;;;;;;;5023707;28;63789;-76
2024/01/18 12:09:27;;;;;;;;;65.67;49.00;;;;;;;;5042113;28;61719;-76
2024/01/18 12:11:55;;;;;;;;;60.00;47.00;;;;;;;;5042297;28;61861;-76
2024/01/18 12:14:20;;;;;;;;;58.67;39.33;;;;;;;;5023342;28;61772;-75
2024/01/18 12:16:46;;;;;;;;;51.33;37.33;;;;;;;;5041971;28;61866;-75
2024/01/18 12:19:12;;;;;;;;;66.00;49.67;;;;;;;;5041095;28;61875;-76
2024/01/18 12:21:37;;;;;;;;;65.33;44.33;;;;;;;;5041714;28;61895;-76
2024/01/18 12:24:04;;;;;;;;;49.00;42.67;;;;;;;;5023733;28;61831;-76
2024/01/18 12:26:30;;;;;;;;;43.25;35.25;;;;;;;;5040574;28;61826;-76
2024/01/18 12:28:56;;;;;;;;;50.25;41.25;;;;;;;;5023011;28;61923;-76
2024/01/18 12:31:21;;;;;;;;;56.25;43.25;;;;;;;;5043136;28;61693;-76
2024/01/18 12:33:47;;;;;;;;;49.00;39.00;;;;;;;;5041523;28;62188;-76
2024/01/18 12:36:12;;;;;;;;;53.33;42.67;;;;;;;;5022081;28;63737;-77
2024/01/18 12:38:38;;;;;;;;;50.33;37.00;;;;;;;;5041517;28;61804;-77
2024/01/18 12:41:03;;;;;;;;;56.33;46.00;;;;;;;;5041446;28;61669;-76
2024/01/18 12:43:28;;;;;;;;;49.33;41.33;;;;;;;;5040878;28;61971;-76
2024/01/18 12:45:53;;;;;;;;;50.00;44.00;;;;;;;;5040703;28;62031;-76
2024/01/18 12:48:19;;;;;;;;;45.67;40.33;;;;;;;;5041104;28;62270;-76
2024/01/18 12:50:45;;;;;;;;;55.67;42.00;;;;;;;;5041564;28;61795;-76
2024/01/18 12:53:10;;;;;;;;;54.33;44.00;;;;;;;;5041227;28;61890;-76
2024/01/18 12:55:36;;;;;;;;;55.00;44.00;;;;;;;;5022671;28;63831;-76
2024/01/18 12:58:04;;;;;;;;;53.00;40.00;;;;;;;;5037240;28;61787;-76
2024/01/18 13:00:32;;;;;;;;;56.00;44.00;;;;;;;;5038859;28;61693;-76
2024/01/18 13:03:09;;;;;;;;;51.50;41.00;;;;;;;;5041189;28;61975;-76
2024/01/18 13:05:40;;;;;;;;;61.67;48.00;;;;;;;;5040530;28;61725;-76
2024/01/18 13:08:06;;;;;;;;;43.33;29.00;;;;;;;;5038992;28;61680;-76
2024/01/18 13:10:31;;;;;;;;;56.67;44.00;;;;;;;;5040478;28;61866;-76
2024/01/18 13:12:57;;;;;;;;;33.67;31.67;;;;;;;;5022364;28;61957;-76
2024/01/18 13:15:23;;;;;;;;;48.00;43.00;;;;;;;;5040203;28;62860;-77
2024/01/18 13:17:48;;;;;;;;;47.33;32.00;;;;;;;;5040623;28;61704;-76
2024/01/18 13:20:13;;;;;;;;;35.50;33.25;;;;;;;;5040861;28;61701;-77
2024/01/18 13:22:38;;;;;;;;;36.50;33.25;;;;;;;;5040827;28;61947;-77
2024/01/18 13:25:04;;;;;;;;;42.75;30.25;;;;;;;;5040173;28;62079;-76
2024/01/18 13:27:29;;;;;;;;;28.75;23.25;;;;;;;;5021771;28;61844;-76
2024/01/18 13:29:54;;;;;;;;;27.50;23.00;;;;;;;;5022238;28;61847;-77
2024/01/18 13:32:19;;;;;;;;;26.75;21.50;;;;;;;;5041757;28;61783;-76
2024/01/18 13:34:45;;;;;;;;;29.50;21.25;;;;;;;;5039696;28;62119;-76
2024/01/18 13:37:10;;;;;;;;;22.25;18.50;;;;;;;;5022317;28;61943;-77
2024/01/18 13:39:35;;;;;;;;;30.50;22.50;;;;;;;;5040000;28;62040;-77
2024/01/18 13:42:00;;;;;;;;;25.00;20.00;;;;;;;;5019186;28;62087;-77
2024/01/18 13:44:25;;;;;;;;;26.25;19.50;;;;;;;;5039812;28;61795;-76
2024/01/18 13:46:52;;;;;;;;;27.50;20.75;;;;;;;;5040461;28;62083;-77
2024/01/18 13:49:17;;;;;;;;;17.25;14.25;;;;;;;;5040498;28;61811;-77
2024/01/18 13:51:43;;;;;;;;;18.75;18.75;;;;;;;;5040517;28;61724;-77
2024/01/18 13:54:08;;;;;;;;;25.00;19.50;;;;;;;;5040391;28;62719;-77
2024/01/18 13:56:34;;;;;;;;;24.00;16.75;;;;;;;;5040877;28;61709;-77
2024/01/18 13:58:59;;;;;;;;;15.50;11.50;;;;;;;;5043834;28;61824;-76
2024/01/18 14:01:24;;;;;;;;;15.50;11.00;;;;;;;;5025997;28;61744;-77
2024/01/18 14:03:51;;;;;;;;;21.50;17.75;;;;;;;;5043444;28;61908;-77
2024/01/18 14:06:17;;;;;;;;;16.00;16.00;;;;;;;;5044572;28;62121;-77
2024/01/18 14:08:43;;;;;;;;;22.25;17.75;;;;;;;;5044090;28;62063;-76